• Join FlightAware (Why Join?)
  • Login
  • US Flag 
04:34PM EST


 

Airport Tracker/Info


-or-


 

Live Flight TrackerFlight Track Log ✈ SKW5550 ✈ 15-Aug-2013 ✈ KCOD - KDEN

Flight Track Log - Related Links

Times and Time Zones

All times are in EDT time to prevent confusion due to time zone crossing. See the SKW5550 flight status page for this flight to view local times or setup timezone preferences in your user account.

Time Position Orientation Groundspeed Altitude Reporting Facility
EDT Latitude Longitude Course Direction KTS MPH feet Rate Location/Type
07:58AM 44.5444 -108.9839 28° Northeast 199 229 6,600  Level Salt Lake Center
07:59AM 44.5686 -108.9258 60° Northeast 178 205 8,600 1,740 Climbing Salt Lake Center
08:00AM 44.5125 -108.8842 152° Southeast 222 255 10,100 1,620 Climbing Salt Lake Center
08:01AM 44.4403 -108.8611 167° South 252 290 11,900 1,560 Climbing Salt Lake Center
08:02AM 44.3547 -108.8153 159° South 302 348 13,300 1,440 Climbing Salt Lake Center
08:03AM 44.6148 -108.9514 28° Northeast  Level FlightAware Approximate
08:03AM 44.2681 -108.7619 156° South 323 372 14,800  Level Salt Lake Center
08:04AM 44.1539 -108.6956 157° South 354 407 17,000 1,860 Climbing Salt Lake Center
08:05AM 44.0569 -108.6408 158° South 371 427 18,600 1,440 Climbing Salt Lake Center
08:06AM 43.9603 -108.5844 157° South 376 433 19,900 1,200 Climbing Salt Lake Center
08:07AM 43.8603 -108.5272 158° South 386 444 21,100 1,260 Climbing Salt Lake Center
08:08AM 43.7606 -108.4708 158° South 388 447 22,500 1,260 Climbing Salt Lake Center
08:09AM 43.6589 -108.4122 157° South 396 456 23,700 960 Climbing Salt Lake Center
08:10AM 43.5547 -108.3550 158° South 402 463 24,500 660 Climbing Salt Lake Center
08:11AM 43.4492 -108.2908 156° South 414 476 25,100 600 Climbing Salt Lake Center
08:12AM 43.3544 -108.1864 141° Southeast 435 501 25,800 660 Climbing Salt Lake Center
08:13AM 43.2586 -108.0839 142° Southeast 437 503 26,500 720 Climbing Salt Lake Center
08:14AM 43.1603 -107.9814 143° Southeast 445 512 27,300 720 Climbing Salt Lake Center
08:15AM 43.0614 -107.8756 142° Southeast 451 519 28,000 600 Climbing Salt Lake Center
08:16AM 42.9600 -107.7706 143° Southeast 457 526 28,600 600 Climbing Salt Lake Center
08:17AM 42.8553 -107.6597 142° Southeast 457 526 29,300 660 Climbing Salt Lake Center
08:18AM 42.7567 -107.5567 142° Southeast 465 535 30,000 660 Climbing Salt Lake Center
08:19AM 42.6406 -107.4369 143° Southeast 467 537 30,700 480 Climbing Salt Lake Center
08:20AM 42.5419 -107.3350 143° Southeast 467 537 31,000 120 Climbing Salt Lake Center
08:21AM 42.4392 -107.2300 143° Southeast 477 549 31,000  Level Salt Lake Center
08:22AM 42.3700 -107.1575 142° Southeast 489 563 31,000  Level Denver Center
08:23AM 42.2631 -107.0497 143° Southeast 498 573 31,000  Level Denver Center
08:24AM 42.1553 -106.9408 143° Southeast 505 581 31,000  Level Denver Center
08:25AM 42.0300 -106.8128 143° Southeast 507 583 31,000  Level Denver Center
08:26AM 41.9181 -106.7011 143° Southeast 515 593 31,000  Level Denver Center
08:27AM 41.8081 -106.5919 143° Southeast 515 593 31,000  Level Denver Center
08:28AM 41.6931 -106.4778 143° Southeast 517 595 31,000  Level Denver Center
08:29AM 41.5633 -106.3506 144° Southeast 518 596 31,000  Level Denver Center
08:30AM 41.4358 -106.2269 144° Southeast 511 588 31,000  Level Denver Center
08:31AM 41.3069 -106.1047 145° Southeast 511 588 31,000  Level Denver Center
08:32AM 41.1969 -105.9997 144° Southeast 510 587 31,000  Level Denver Center
08:33AM 41.0686 -105.8794 145° Southeast 508 585 31,000  Level Denver Center
08:34AM 40.9522 -105.7675 144° Southeast 510 587 31,000  Level Denver Center
08:35AM 40.8378 -105.6600 145° Southeast 507 583 31,000 -540 Level Denver Center
08:36AM 40.7242 -105.5536 145° Southeast 502 578 30,000 -2,340 Descending Denver Center
08:37AM 40.6142 -105.4506 145° Southeast 492 566 26,300 -3,480 Descending Denver Center
08:38AM 40.5525 -105.3472 128° Southeast 460 529 23,000 -4,260 Descending Denver Center
08:39AM 40.4756 -105.1764 121° Southeast 426 490 17,700 -3,060 Descending Denver Center
08:40AM 40.4422 -105.0542 110° East 357 411 16,800 -1,140 Descending Denver Center
08:41AM 40.4083 -104.9389 111° Southeast 341 392 15,500 -1,140 Descending Denver Center
08:42AM 40.3742 -104.8397 114° Southeast 307 353 14,600 -1,080 Descending Denver Center
08:43AM 40.3092 -104.7753 143° Southeast 282 325 13,100 -1,380 Descending Denver Center
08:44AM 40.2297 -104.7161 150° Southeast 283 326 11,600 -1,320 Descending Denver Center
08:45AM 40.1553 -104.6936 167° South 252 290 10,500 -960 Descending Denver Center
08:47AM 40.0894 -104.6939 180° South 233 268 9,700 -1,200 Descending Denver Center
08:48AM 40.0319 -104.6950 181° South 210 242 8,100 -1,440 Descending Denver Center
08:49AM 39.9736 -104.6944 180° South 205 236 6,800 -1,080 Descending Denver Center
08:50AM 39.9258 -104.6956 181° South 160 184 6,000 -780 Descending Denver Center
08:51AM 39.8883 -104.6961 181° South 147 169 5,300 -720 Descending Denver Center